sensor_id;sensor_type;location;lat;lon;timestamp;P1;durP1;ratioP1;P2;durP2;ratioP2
43813;SDS011;29669;55.706;37.656;2022-10-19T00:01:34;1.00;;;1.00;;
43813;SDS011;29669;55.706;37.656;2022-10-19T00:04:23;1.58;;;1.02;;
43813;SDS011;29669;55.706;37.656;2022-10-19T00:07:11;1.00;;;0.90;;
43813;SDS011;29669;55.706;37.656;2022-10-19T00:09:59;0.95;;;0.95;;
43813;SDS011;29669;55.706;37.656;2022-10-19T00:12:47;0.93;;;0.90;;
43813;SDS011;29669;55.706;37.656;2022-10-19T00:15:40;3.35;;;0.82;;
43813;SDS011;29669;55.706;37.656;2022-10-19T00:18:28;2.08;;;0.90;;
43813;SDS011;29669;55.706;37.656;2022-10-19T00:21:17;1.02;;;0.95;;
43813;SDS011;29669;55.706;37.656;2022-10-19T00:24:06;1.20;;;0.80;;
43813;SDS011;29669;55.706;37.656;2022-10-19T00:26:54;3.17;;;1.10;;
43813;SDS011;29669;55.706;37.656;2022-10-19T00:29:42;2.38;;;1.25;;
43813;SDS011;29669;55.706;37.656;2022-10-19T00:32:30;0.90;;;0.90;;
43813;SDS011;29669;55.706;37.656;2022-10-19T00:35:18;0.88;;;0.80;;
43813;SDS011;29669;55.706;37.656;2022-10-19T00:38:06;2.08;;;0.85;;
43813;SDS011;29669;55.706;37.656;2022-10-19T00:40:54;1.00;;;1.00;;
43813;SDS011;29669;55.706;37.656;2022-10-19T00:43:53;0.70;;;0.70;;
43813;SDS011;29669;55.706;37.656;2022-10-19T00:46:51;0.70;;;0.70;;
43813;SDS011;29669;55.706;37.656;2022-10-19T00:49:41;0.80;;;0.80;;
43813;SDS011;29669;55.706;37.656;2022-10-19T00:52:31;0.77;;;0.77;;
43813;SDS011;29669;55.706;37.656;2022-10-19T00:55:20;1.77;;;0.73;;
43813;SDS011;29669;55.706;37.656;2022-10-19T00:58:08;0.75;;;0.75;;
43813;SDS011;29669;55.706;37.656;2022-10-19T01:00:56;1.00;;;1.00;;
43813;SDS011;29669;55.706;37.656;2022-10-19T01:03:48;0.95;;;0.75;;
43813;SDS011;29669;55.706;37.656;2022-10-19T01:06:36;0.77;;;0.77;;
43813;SDS011;29669;55.706;37.656;2022-10-19T01:09:26;0.73;;;0.73;;
43813;SDS011;29669;55.706;37.656;2022-10-19T01:15:45;0.70;;;0.70;;
43813;SDS011;29669;55.706;37.656;2022-10-19T01:18:57;0.93;;;0.90;;
43813;SDS011;29669;55.706;37.656;2022-10-19T01:25:37;0.90;;;0.90;;
43813;SDS011;29669;55.706;37.656;2022-10-19T01:28:31;0.93;;;0.93;;
43813;SDS011;29669;55.706;37.656;2022-10-19T01:31:35;0.80;;;0.80;;
43813;SDS011;29669;55.706;37.656;2022-10-19T01:37:26;0.90;;;0.90;;
43813;SDS011;29669;55.706;37.656;2022-10-19T01:40:27;1.38;;;0.80;;
43813;SDS011;29669;55.706;37.656;2022-10-19T01:43:31;1.10;;;1.00;;
43813;SDS011;29669;55.706;37.656;2022-10-19T01:46:31;1.00;;;1.00;;
43813;SDS011;29669;55.706;37.656;2022-10-19T01:53:02;0.80;;;0.80;;
43813;SDS011;29669;55.706;37.656;2022-10-19T01:55:53;0.80;;;0.80;;
43813;SDS011;29669;55.706;37.656;2022-10-19T01:58:43;1.10;;;1.05;;
43813;SDS011;29669;55.706;37.656;2022-10-19T02:01:33;0.90;;;0.90;;
43813;SDS011;29669;55.706;37.656;2022-10-19T02:04:24;1.60;;;1.02;;
43813;SDS011;29669;55.706;37.656;2022-10-19T02:07:12;2.33;;;1.52;;
43813;SDS011;29669;55.706;37.656;2022-10-19T02:10:02;0.90;;;0.90;;
43813;SDS011;29669;55.706;37.656;2022-10-19T02:12:50;2.22;;;1.80;;
43813;SDS011;29669;55.706;37.656;2022-10-19T02:16:03;1.95;;;1.10;;
43813;SDS011;29669;55.706;37.656;2022-10-19T02:18:54;0.88;;;0.88;;
43813;SDS011;29669;55.706;37.656;2022-10-19T02:21:44;1.02;;;0.95;;
43813;SDS011;29669;55.706;37.656;2022-10-19T02:24:32;1.30;;;1.00;;
43813;SDS011;29669;55.706;37.656;2022-10-19T02:27:20;1.35;;;1.02;;
43813;SDS011;29669;55.706;37.656;2022-10-19T02:30:09;1.20;;;1.10;;
43813;SDS011;29669;55.706;37.656;2022-10-19T02:32:59;0.90;;;0.90;;
43813;SDS011;29669;55.706;37.656;2022-10-19T02:35:47;1.42;;;0.90;;
43813;SDS011;29669;55.706;37.656;2022-10-19T02:38:35;1.00;;;1.00;;
43813;SDS011;29669;55.706;37.656;2022-10-19T02:41:25;1.00;;;1.00;;
43813;SDS011;29669;55.706;37.656;2022-10-19T02:44:25;1.35;;;1.10;;
43813;SDS011;29669;55.706;37.656;2022-10-19T02:47:23;0.88;;;0.88;;
43813;SDS011;29669;55.706;37.656;2022-10-19T02:50:15;2.15;;;1.00;;
43813;SDS011;29669;55.706;37.656;2022-10-19T02:53:05;1.02;;;0.93;;
43813;SDS011;29669;55.706;37.656;2022-10-19T02:55:53;2.03;;;1.33;;
43813;SDS011;29669;55.706;37.656;2022-10-19T02:58:40;1.25;;;1.10;;
43813;SDS011;29669;55.706;37.656;2022-10-19T03:01:28;1.30;;;1.25;;
43813;SDS011;29669;55.706;37.656;2022-10-19T03:04:16;3.75;;;1.70;;
43813;SDS011;29669;55.706;37.656;2022-10-19T03:07:04;1.63;;;1.52;;
43813;SDS011;29669;55.706;37.656;2022-10-19T03:09:52;1.60;;;1.50;;
43813;SDS011;29669;55.706;37.656;2022-10-19T03:12:40;1.63;;;1.20;;
43813;SDS011;29669;55.706;37.656;2022-10-19T03:15:28;3.13;;;1.30;;
43813;SDS011;29669;55.706;37.656;2022-10-19T03:18:16;3.38;;;1.50;;
43813;SDS011;29669;55.706;37.656;2022-10-19T03:21:05;2.72;;;1.65;;
43813;SDS011;29669;55.706;37.656;2022-10-19T03:23:56;6.47;;;2.53;;
43813;SDS011;29669;55.706;37.656;2022-10-19T03:26:43;2.60;;;1.80;;
43813;SDS011;29669;55.706;37.656;2022-10-19T03:29:31;4.72;;;2.65;;
43813;SDS011;29669;55.706;37.656;2022-10-19T03:32:19;4.30;;;2.40;;
43813;SDS011;29669;55.706;37.656;2022-10-19T03:35:07;3.80;;;2.38;;
43813;SDS011;29669;55.706;37.656;2022-10-19T03:37:55;4.85;;;2.85;;
43813;SDS011;29669;55.706;37.656;2022-10-19T03:40:43;4.25;;;2.65;;
43813;SDS011;29669;55.706;37.656;2022-10-19T03:43:31;5.72;;;2.72;;
43813;SDS011;29669;55.706;37.656;2022-10-19T03:46:20;9.52;;;3.45;;
43813;SDS011;29669;55.706;37.656;2022-10-19T03:49:07;6.20;;;3.58;;
43813;SDS011;29669;55.706;37.656;2022-10-19T03:51:56;5.38;;;3.00;;
43813;SDS011;29669;55.706;37.656;2022-10-19T03:54:44;4.30;;;2.72;;
43813;SDS011;29669;55.706;37.656;2022-10-19T03:57:32;4.13;;;2.83;;
43813;SDS011;29669;55.706;37.656;2022-10-19T04:00:21;3.63;;;3.00;;
43813;SDS011;29669;55.706;37.656;2022-10-19T04:03:08;6.95;;;4.25;;
43813;SDS011;29669;55.706;37.656;2022-10-19T04:06:00;8.45;;;3.80;;
43813;SDS011;29669;55.706;37.656;2022-10-19T04:08:50;7.80;;;3.53;;
43813;SDS011;29669;55.706;37.656;2022-10-19T04:11:38;5.53;;;2.80;;
43813;SDS011;29669;55.706;37.656;2022-10-19T04:14:26;8.25;;;3.55;;
43813;SDS011;29669;55.706;37.656;2022-10-19T04:17:19;6.05;;;3.70;;
43813;SDS011;29669;55.706;37.656;2022-10-19T04:20:07;5.55;;;3.22;;
43813;SDS011;29669;55.706;37.656;2022-10-19T04:22:55;11.65;;;4.25;;
43813;SDS011;29669;55.706;37.656;2022-10-19T04:25:43;8.20;;;4.57;;
43813;SDS011;29669;55.706;37.656;2022-10-19T04:28:31;6.75;;;3.90;;
43813;SDS011;29669;55.706;37.656;2022-10-19T04:31:20;10.35;;;4.90;;
43813;SDS011;29669;55.706;37.656;2022-10-19T04:34:08;9.95;;;4.32;;
43813;SDS011;29669;55.706;37.656;2022-10-19T04:36:56;8.95;;;4.68;;
43813;SDS011;29669;55.706;37.656;2022-10-19T04:39:45;7.50;;;4.25;;
43813;SDS011;29669;55.706;37.656;2022-10-19T04:42:33;5.45;;;4.63;;
43813;SDS011;29669;55.706;37.656;2022-10-19T04:45:21;7.95;;;4.20;;
43813;SDS011;29669;55.706;37.656;2022-10-19T04:48:10;9.55;;;5.45;;
43813;SDS011;29669;55.706;37.656;2022-10-19T04:51:01;8.57;;;4.80;;
43813;SDS011;29669;55.706;37.656;2022-10-19T04:53:50;8.57;;;4.85;;
43813;SDS011;29669;55.706;37.656;2022-10-19T04:56:41;7.15;;;4.80;;
43813;SDS011;29669;55.706;37.656;2022-10-19T04:59:29;10.75;;;4.35;;
43813;SDS011;29669;55.706;37.656;2022-10-19T05:02:17;6.38;;;4.55;;
43813;SDS011;29669;55.706;37.656;2022-10-19T05:05:05;5.75;;;4.97;;
43813;SDS011;29669;55.706;37.656;2022-10-19T05:07:53;8.52;;;4.25;;
43813;SDS011;29669;55.706;37.656;2022-10-19T05:10:41;6.90;;;4.28;;
43813;SDS011;29669;55.706;37.656;2022-10-19T05:13:32;8.30;;;5.05;;
43813;SDS011;29669;55.706;37.656;2022-10-19T05:16:20;7.55;;;5.32;;
43813;SDS011;29669;55.706;37.656;2022-10-19T05:19:11;6.80;;;5.28;;
43813;SDS011;29669;55.706;37.656;2022-10-19T05:22:00;8.93;;;5.72;;
43813;SDS011;29669;55.706;37.656;2022-10-19T05:24:48;12.10;;;5.07;;
43813;SDS011;29669;55.706;37.656;2022-10-19T05:27:39;7.07;;;5.07;;
43813;SDS011;29669;55.706;37.656;2022-10-19T05:30:27;11.63;;;4.57;;
43813;SDS011;29669;55.706;37.656;2022-10-19T05:33:15;7.10;;;4.82;;
43813;SDS011;29669;55.706;37.656;2022-10-19T05:39:03;9.27;;;5.43;;
43813;SDS011;29669;55.706;37.656;2022-10-19T05:42:11;8.40;;;4.70;;
43813;SDS011;29669;55.706;37.656;2022-10-19T05:44:59;6.38;;;4.75;;
43813;SDS011;29669;55.706;37.656;2022-10-19T05:47:47;16.60;;;6.05;;
43813;SDS011;29669;55.706;37.656;2022-10-19T05:50:35;7.40;;;5.15;;
43813;SDS011;29669;55.706;37.656;2022-10-19T05:53:23;10.30;;;5.55;;
43813;SDS011;29669;55.706;37.656;2022-10-19T05:56:12;7.20;;;5.18;;
43813;SDS011;29669;55.706;37.656;2022-10-19T05:59:03;7.05;;;5.75;;
43813;SDS011;29669;55.706;37.656;2022-10-19T06:01:52;8.40;;;6.65;;
43813;SDS011;29669;55.706;37.656;2022-10-19T06:04:41;12.20;;;7.13;;
43813;SDS011;29669;55.706;37.656;2022-10-19T06:07:29;12.82;;;6.75;;
43813;SDS011;29669;55.706;37.656;2022-10-19T06:10:17;13.32;;;8.35;;
43813;SDS011;29669;55.706;37.656;2022-10-19T06:13:05;14.82;;;8.63;;
43813;SDS011;29669;55.706;37.656;2022-10-19T06:15:53;13.32;;;8.45;;
43813;SDS011;29669;55.706;37.656;2022-10-19T06:18:41;12.80;;;8.90;;
43813;SDS011;29669;55.706;37.656;2022-10-19T06:21:30;27.80;;;10.57;;
43813;SDS011;29669;55.706;37.656;2022-10-19T06:24:19;19.77;;;10.38;;
43813;SDS011;29669;55.706;37.656;2022-10-19T06:27:07;13.52;;;9.10;;
43813;SDS011;29669;55.706;37.656;2022-10-19T06:29:55;12.88;;;8.48;;
43813;SDS011;29669;55.706;37.656;2022-10-19T06:32:43;17.73;;;8.48;;
43813;SDS011;29669;55.706;37.656;2022-10-19T06:35:31;13.85;;;7.35;;
43813;SDS011;29669;55.706;37.656;2022-10-19T06:38:20;16.10;;;8.68;;
43813;SDS011;29669;55.706;37.656;2022-10-19T06:41:09;17.27;;;8.20;;
43813;SDS011;29669;55.706;37.656;2022-10-19T06:43:57;12.02;;;6.65;;
43813;SDS011;29669;55.706;37.656;2022-10-19T06:46:45;11.68;;;6.80;;
43813;SDS011;29669;55.706;37.656;2022-10-19T06:49:33;10.27;;;6.18;;
43813;SDS011;29669;55.706;37.656;2022-10-19T06:52:22;9.32;;;6.55;;
43813;SDS011;29669;55.706;37.656;2022-10-19T06:55:10;10.68;;;6.13;;
43813;SDS011;29669;55.706;37.656;2022-10-19T06:57:58;15.55;;;7.10;;
43813;SDS011;29669;55.706;37.656;2022-10-19T07:00:53;7.65;;;6.40;;
43813;SDS011;29669;55.706;37.656;2022-10-19T07:03:45;8.82;;;6.60;;
43813;SDS011;29669;55.706;37.656;2022-10-19T07:06:33;10.48;;;7.18;;
43813;SDS011;29669;55.706;37.656;2022-10-19T07:09:21;12.40;;;7.35;;
43813;SDS011;29669;55.706;37.656;2022-10-19T07:12:09;12.20;;;7.75;;
43813;SDS011;29669;55.706;37.656;2022-10-19T07:14:57;16.75;;;9.60;;
43813;SDS011;29669;55.706;37.656;2022-10-19T07:17:45;18.75;;;10.95;;
43813;SDS011;29669;55.706;37.656;2022-10-19T07:20:33;14.70;;;8.77;;
43813;SDS011;29669;55.706;37.656;2022-10-19T07:23:21;14.80;;;9.43;;
43813;SDS011;29669;55.706;37.656;2022-10-19T07:26:11;15.75;;;10.73;;
43813;SDS011;29669;55.706;37.656;2022-10-19T07:29:04;17.15;;;10.27;;
43813;SDS011;29669;55.706;37.656;2022-10-19T07:31:52;15.45;;;9.82;;
43813;SDS011;29669;55.706;37.656;2022-10-19T07:34:40;13.65;;;9.15;;
43813;SDS011;29669;55.706;37.656;2022-10-19T07:37:28;13.60;;;8.80;;
43813;SDS011;29669;55.706;37.656;2022-10-19T07:40:16;14.40;;;9.65;;
43813;SDS011;29669;55.706;37.656;2022-10-19T07:43:04;15.48;;;9.63;;
43813;SDS011;29669;55.706;37.656;2022-10-19T07:46:02;15.90;;;8.68;;
43813;SDS011;29669;55.706;37.656;2022-10-19T07:48:55;13.90;;;8.52;;
43813;SDS011;29669;55.706;37.656;2022-10-19T07:51:43;12.35;;;8.25;;
43813;SDS011;29669;55.706;37.656;2022-10-19T07:54:32;10.68;;;7.65;;
43813;SDS011;29669;55.706;37.656;2022-10-19T07:57:20;11.40;;;7.65;;
43813;SDS011;29669;55.706;37.656;2022-10-19T08:00:09;11.60;;;7.18;;
43813;SDS011;29669;55.706;37.656;2022-10-19T08:02:58;12.85;;;7.93;;
43813;SDS011;29669;55.706;37.656;2022-10-19T08:06:07;9.73;;;6.30;;
43813;SDS011;29669;55.706;37.656;2022-10-19T08:08:57;9.75;;;7.15;;
43813;SDS011;29669;55.706;37.656;2022-10-19T08:11:47;8.18;;;5.97;;
43813;SDS011;29669;55.706;37.656;2022-10-19T08:14:34;6.72;;;5.43;;
43813;SDS011;29669;55.706;37.656;2022-10-19T08:17:22;11.52;;;6.90;;
43813;SDS011;29669;55.706;37.656;2022-10-19T08:20:10;8.70;;;5.60;;
43813;SDS011;29669;55.706;37.656;2022-10-19T08:22:58;7.47;;;5.82;;
43813;SDS011;29669;55.706;37.656;2022-10-19T08:25:46;12.52;;;6.40;;
43813;SDS011;29669;55.706;37.656;2022-10-19T08:28:34;12.25;;;5.97;;
43813;SDS011;29669;55.706;37.656;2022-10-19T08:31:22;7.38;;;5.28;;
43813;SDS011;29669;55.706;37.656;2022-10-19T08:34:11;8.38;;;5.53;;
43813;SDS011;29669;55.706;37.656;2022-10-19T08:37:00;10.75;;;5.68;;
43813;SDS011;29669;55.706;37.656;2022-10-19T08:39:56;10.75;;;5.45;;
43813;SDS011;29669;55.706;37.656;2022-10-19T08:48:38;10.13;;;6.82;;
43813;SDS011;29669;55.706;37.656;2022-10-19T08:51:31;8.75;;;5.93;;
43813;SDS011;29669;55.706;37.656;2022-10-19T08:54:29;8.43;;;5.28;;
43813;SDS011;29669;55.706;37.656;2022-10-19T09:00:42;7.75;;;5.47;;
43813;SDS011;29669;55.706;37.656;2022-10-19T09:03:58;6.75;;;5.28;;
43813;SDS011;29669;55.706;37.656;2022-10-19T09:07:15;8.50;;;6.05;;
43813;SDS011;29669;55.706;37.656;2022-10-19T09:16:02;10.32;;;7.15;;
43813;SDS011;29669;55.706;37.656;2022-10-19T09:18:51;10.32;;;7.47;;
43813;SDS011;29669;55.706;37.656;2022-10-19T09:21:48;11.10;;;7.45;;
43813;SDS011;29669;55.706;37.656;2022-10-19T09:24:41;14.25;;;7.72;;
43813;SDS011;29669;55.706;37.656;2022-10-19T09:27:36;16.33;;;8.27;;
43813;SDS011;29669;55.706;37.656;2022-10-19T09:30:25;14.70;;;8.05;;
43813;SDS011;29669;55.706;37.656;2022-10-19T09:33:18;19.77;;;11.18;;
43813;SDS011;29669;55.706;37.656;2022-10-19T09:36:13;14.57;;;7.38;;
43813;SDS011;29669;55.706;37.656;2022-10-19T09:39:10;11.35;;;6.55;;
43813;SDS011;29669;55.706;37.656;2022-10-19T09:42:43;10.45;;;6.72;;
43813;SDS011;29669;55.706;37.656;2022-10-19T09:45:37;8.80;;;6.63;;
43813;SDS011;29669;55.706;37.656;2022-10-19T09:49:06;14.73;;;7.03;;
43813;SDS011;29669;55.706;37.656;2022-10-19T09:51:49;14.55;;;6.15;;
43813;SDS011;29669;55.706;37.656;2022-10-19T09:54:38;12.40;;;7.03;;
43813;SDS011;29669;55.706;37.656;2022-10-19T09:57:26;9.27;;;6.32;;
43813;SDS011;29669;55.706;37.656;2022-10-19T10:00:18;11.68;;;7.55;;
43813;SDS011;29669;55.706;37.656;2022-10-19T10:06:19;19.80;;;7.15;;
43813;SDS011;29669;55.706;37.656;2022-10-19T10:09:13;17.10;;;9.05;;
43813;SDS011;29669;55.706;37.656;2022-10-19T10:12:03;15.85;;;7.43;;
43813;SDS011;29669;55.706;37.656;2022-10-19T10:14:54;15.50;;;8.10;;
43813;SDS011;29669;55.706;37.656;2022-10-19T10:17:43;20.20;;;8.38;;
43813;SDS011;29669;55.706;37.656;2022-10-19T10:20:34;8.05;;;5.68;;
43813;SDS011;29669;55.706;37.656;2022-10-19T10:23:23;8.75;;;5.05;;
43813;SDS011;29669;55.706;37.656;2022-10-19T10:26:17;8.90;;;4.40;;
43813;SDS011;29669;55.706;37.656;2022-10-19T10:29:17;8.90;;;4.72;;
43813;SDS011;29669;55.706;37.656;2022-10-19T10:34:58;7.80;;;3.53;;
43813;SDS011;29669;55.706;37.656;2022-10-19T10:37:53;7.40;;;3.63;;
43813;SDS011;29669;55.706;37.656;2022-10-19T10:41:02;9.40;;;3.53;;
43813;SDS011;29669;55.706;37.656;2022-10-19T10:43:57;10.40;;;4.70;;
43813;SDS011;29669;55.706;37.656;2022-10-19T10:46:54;9.60;;;5.07;;
43813;SDS011;29669;55.706;37.656;2022-10-19T10:49:52;9.60;;;5.07;;
43813;SDS011;29669;55.706;37.656;2022-10-19T10:52:40;4.60;;;3.13;;
43813;SDS011;29669;55.706;37.656;2022-10-19T10:55:53;7.78;;;3.70;;
43813;SDS011;29669;55.706;37.656;2022-10-19T10:58:44;6.82;;;3.97;;
43813;SDS011;29669;55.706;37.656;2022-10-19T11:01:40;6.28;;;4.40;;
43813;SDS011;29669;55.706;37.656;2022-10-19T11:04:35;6.13;;;3.85;;
43813;SDS011;29669;55.706;37.656;2022-10-19T11:07:29;11.18;;;5.50;;
43813;SDS011;29669;55.706;37.656;2022-10-19T11:10:25;6.35;;;4.18;;
43813;SDS011;29669;55.706;37.656;2022-10-19T11:17:06;8.70;;;4.22;;
43813;SDS011;29669;55.706;37.656;2022-10-19T11:20:04;9.65;;;5.05;;
43813;SDS011;29669;55.706;37.656;2022-10-19T11:22:59;11.93;;;4.90;;
43813;SDS011;29669;55.706;37.656;2022-10-19T11:25:59;9.75;;;5.00;;
43813;SDS011;29669;55.706;37.656;2022-10-19T11:31:59;7.70;;;4.30;;
43813;SDS011;29669;55.706;37.656;2022-10-19T11:44:29;9.23;;;4.32;;
43813;SDS011;29669;55.706;37.656;2022-10-19T11:47:43;5.90;;;4.32;;
43813;SDS011;29669;55.706;37.656;2022-10-19T11:50:51;9.73;;;5.22;;
43813;SDS011;29669;55.706;37.656;2022-10-19T11:56:56;5.72;;;4.28;;
43813;SDS011;29669;55.706;37.656;2022-10-19T12:03:05;6.07;;;4.25;;
43813;SDS011;29669;55.706;37.656;2022-10-19T12:09:04;9.32;;;4.28;;
43813;SDS011;29669;55.706;37.656;2022-10-19T12:12:25;4.25;;;3.22;;
43813;SDS011;29669;55.706;37.656;2022-10-19T12:18:10;5.60;;;3.90;;
43813;SDS011;29669;55.706;37.656;2022-10-19T12:21:24;5.57;;;3.42;;
43813;SDS011;29669;55.706;37.656;2022-10-19T12:24:19;4.88;;;3.22;;
43813;SDS011;29669;55.706;37.656;2022-10-19T12:27:14;4.53;;;3.15;;
43813;SDS011;29669;55.706;37.656;2022-10-19T12:30:13;8.20;;;4.10;;
43813;SDS011;29669;55.706;37.656;2022-10-19T12:33:14;9.25;;;3.67;;
43813;SDS011;29669;55.706;37.656;2022-10-19T12:39:35;10.73;;;4.20;;
43813;SDS011;29669;55.706;37.656;2022-10-19T12:42:45;9.77;;;3.85;;
43813;SDS011;29669;55.706;37.656;2022-10-19T12:45:43;9.45;;;4.28;;
43813;SDS011;29669;55.706;37.656;2022-10-19T12:48:40;4.95;;;3.70;;
43813;SDS011;29669;55.706;37.656;2022-10-19T12:51:28;8.93;;;5.43;;
43813;SDS011;29669;55.706;37.656;2022-10-19T12:54:31;9.13;;;3.88;;
43813;SDS011;29669;55.706;37.656;2022-10-19T12:57:25;4.40;;;3.35;;
43813;SDS011;29669;55.706;37.656;2022-10-19T13:00:25;5.93;;;4.00;;
43813;SDS011;29669;55.706;37.656;2022-10-19T13:03:20;6.32;;;4.30;;
43813;SDS011;29669;55.706;37.656;2022-10-19T13:06:12;7.00;;;4.55;;
43813;SDS011;29669;55.706;37.656;2022-10-19T13:09:21;3.40;;;3.10;;
43813;SDS011;29669;55.706;37.656;2022-10-19T13:15:47;5.18;;;3.42;;
43813;SDS011;29669;55.706;37.656;2022-10-19T13:21:52;9.98;;;4.88;;
43813;SDS011;29669;55.706;37.656;2022-10-19T13:25:13;5.30;;;3.58;;
43813;SDS011;29669;55.706;37.656;2022-10-19T13:33:47;7.50;;;4.03;;
43813;SDS011;29669;55.706;37.656;2022-10-19T13:36:36;7.82;;;4.18;;
43813;SDS011;29669;55.706;37.656;2022-10-19T13:39:26;6.97;;;4.68;;
43813;SDS011;29669;55.706;37.656;2022-10-19T13:42:22;8.70;;;5.43;;
43813;SDS011;29669;55.706;37.656;2022-10-19T13:45:22;10.95;;;5.65;;
43813;SDS011;29669;55.706;37.656;2022-10-19T13:48:19;7.60;;;5.13;;
43813;SDS011;29669;55.706;37.656;2022-10-19T14:06:55;5.38;;;3.83;;
43813;SDS011;29669;55.706;37.656;2022-10-19T14:12:54;6.85;;;3.58;;
43813;SDS011;29669;55.706;37.656;2022-10-19T14:15:53;7.50;;;4.05;;
43813;SDS011;29669;55.706;37.656;2022-10-19T14:18:51;7.50;;;4.35;;
43813;SDS011;29669;55.706;37.656;2022-10-19T14:21:43;6.78;;;4.03;;
43813;SDS011;29669;55.706;37.656;2022-10-19T14:24:31;5.90;;;4.03;;
43813;SDS011;29669;55.706;37.656;2022-10-19T14:27:22;10.75;;;5.82;;
43813;SDS011;29669;55.706;37.656;2022-10-19T14:30:21;5.13;;;3.90;;
43813;SDS011;29669;55.706;37.656;2022-10-19T14:33:13;7.88;;;4.72;;
43813;SDS011;29669;55.706;37.656;2022-10-19T14:36:04;9.15;;;5.18;;
43813;SDS011;29669;55.706;37.656;2022-10-19T14:38:54;7.95;;;4.53;;
43813;SDS011;29669;55.706;37.656;2022-10-19T14:41:42;15.15;;;4.68;;
43813;SDS011;29669;55.706;37.656;2022-10-19T14:47:26;8.65;;;5.32;;
43813;SDS011;29669;55.706;37.656;2022-10-19T14:50:14;11.10;;;4.40;;
43813;SDS011;29669;55.706;37.656;2022-10-19T14:53:08;10.82;;;5.72;;
43813;SDS011;29669;55.706;37.656;2022-10-19T14:56:08;7.30;;;4.43;;
43813;SDS011;29669;55.706;37.656;2022-10-19T15:02:35;8.18;;;4.70;;
43813;SDS011;29669;55.706;37.656;2022-10-19T15:05:28;10.55;;;5.00;;
43813;SDS011;29669;55.706;37.656;2022-10-19T15:08:41;7.70;;;4.15;;
43813;SDS011;29669;55.706;37.656;2022-10-19T15:11:38;8.32;;;4.57;;
43813;SDS011;29669;55.706;37.656;2022-10-19T15:14:30;9.80;;;5.15;;
43813;SDS011;29669;55.706;37.656;2022-10-19T15:18:05;6.45;;;4.22;;
43813;SDS011;29669;55.706;37.656;2022-10-19T15:20:37;9.15;;;4.28;;
43813;SDS011;29669;55.706;37.656;2022-10-19T15:23:43;8.00;;;4.30;;
43813;SDS011;29669;55.706;37.656;2022-10-19T15:26:32;6.43;;;4.47;;
43813;SDS011;29669;55.706;37.656;2022-10-19T15:29:27;13.23;;;4.93;;
43813;SDS011;29669;55.706;37.656;2022-10-19T15:32:21;7.95;;;4.00;;
43813;SDS011;29669;55.706;37.656;2022-10-19T15:35:31;8.00;;;3.57;;
43813;SDS011;29669;55.706;37.656;2022-10-19T15:38:24;4.93;;;3.33;;
43813;SDS011;29669;55.706;37.656;2022-10-19T15:41:17;10.18;;;3.78;;
43813;SDS011;29669;55.706;37.656;2022-10-19T15:44:32;7.32;;;4.43;;
43813;SDS011;29669;55.706;37.656;2022-10-19T15:47:30;13.77;;;4.95;;
43813;SDS011;29669;55.706;37.656;2022-10-19T15:50:29;5.65;;;3.20;;
43813;SDS011;29669;55.706;37.656;2022-10-19T15:53:23;7.13;;;3.88;;
43813;SDS011;29669;55.706;37.656;2022-10-19T15:56:12;3.83;;;3.08;;
43813;SDS011;29669;55.706;37.656;2022-10-19T15:59:05;6.53;;;3.50;;
43813;SDS011;29669;55.706;37.656;2022-10-19T16:01:58;7.13;;;4.45;;
43813;SDS011;29669;55.706;37.656;2022-10-19T16:04:45;12.02;;;5.03;;
43813;SDS011;29669;55.706;37.656;2022-10-19T16:07:35;7.72;;;3.42;;
43813;SDS011;29669;55.706;37.656;2022-10-19T16:10:25;6.30;;;4.07;;
43813;SDS011;29669;55.706;37.656;2022-10-19T16:13:14;7.63;;;4.80;;
43813;SDS011;29669;55.706;37.656;2022-10-19T16:16:03;13.32;;;4.05;;
43813;SDS011;29669;55.706;37.656;2022-10-19T16:18:58;13.80;;;3.95;;
43813;SDS011;29669;55.706;37.656;2022-10-19T16:21:47;7.20;;;3.20;;
43813;SDS011;29669;55.706;37.656;2022-10-19T16:24:36;7.63;;;3.05;;
43813;SDS011;29669;55.706;37.656;2022-10-19T16:27:24;10.75;;;4.53;;
43813;SDS011;29669;55.706;37.656;2022-10-19T16:30:12;10.15;;;3.72;;
43813;SDS011;29669;55.706;37.656;2022-10-19T16:33:00;6.55;;;3.25;;
43813;SDS011;29669;55.706;37.656;2022-10-19T16:35:49;10.50;;;3.53;;
43813;SDS011;29669;55.706;37.656;2022-10-19T16:38:36;12.13;;;4.82;;
43813;SDS011;29669;55.706;37.656;2022-10-19T16:41:25;8.27;;;3.67;;
43813;SDS011;29669;55.706;37.656;2022-10-19T16:44:13;4.38;;;3.40;;
43813;SDS011;29669;55.706;37.656;2022-10-19T16:47:02;6.75;;;4.22;;
43813;SDS011;29669;55.706;37.656;2022-10-19T16:49:57;5.80;;;3.10;;
43813;SDS011;29669;55.706;37.656;2022-10-19T16:52:46;7.32;;;3.75;;
43813;SDS011;29669;55.706;37.656;2022-10-19T16:55:35;8.00;;;3.33;;
43813;SDS011;29669;55.706;37.656;2022-10-19T16:58:24;16.35;;;6.60;;
43813;SDS011;29669;55.706;37.656;2022-10-19T17:01:16;16.50;;;5.20;;
43813;SDS011;29669;55.706;37.656;2022-10-19T17:04:05;10.32;;;4.65;;
43813;SDS011;29669;55.706;37.656;2022-10-19T17:06:53;11.80;;;4.25;;
43813;SDS011;29669;55.706;37.656;2022-10-19T17:09:41;9.13;;;4.25;;
43813;SDS011;29669;55.706;37.656;2022-10-19T17:12:29;6.45;;;3.80;;
43813;SDS011;29669;55.706;37.656;2022-10-19T17:15:17;7.97;;;4.55;;
43813;SDS011;29669;55.706;37.656;2022-10-19T17:18:26;7.40;;;4.35;;
43813;SDS011;29669;55.706;37.656;2022-10-19T17:21:20;4.43;;;3.10;;
43813;SDS011;29669;55.706;37.656;2022-10-19T17:24:13;7.50;;;4.18;;
43813;SDS011;29669;55.706;37.656;2022-10-19T17:27:07;6.18;;;3.85;;
43813;SDS011;29669;55.706;37.656;2022-10-19T17:29:55;5.13;;;3.33;;
43813;SDS011;29669;55.706;37.656;2022-10-19T17:32:43;4.97;;;3.83;;
43813;SDS011;29669;55.706;37.656;2022-10-19T17:35:32;5.72;;;2.85;;
43813;SDS011;29669;55.706;37.656;2022-10-19T17:38:20;7.30;;;3.55;;
43813;SDS011;29669;55.706;37.656;2022-10-19T17:41:09;6.32;;;3.08;;
43813;SDS011;29669;55.706;37.656;2022-10-19T17:43:59;4.82;;;3.55;;
43813;SDS011;29669;55.706;37.656;2022-10-19T17:46:50;8.95;;;3.17;;
43813;SDS011;29669;55.706;37.656;2022-10-19T17:49:37;6.47;;;3.40;;
43813;SDS011;29669;55.706;37.656;2022-10-19T17:52:25;6.85;;;3.83;;
43813;SDS011;29669;55.706;37.656;2022-10-19T17:55:13;18.20;;;3.72;;
43813;SDS011;29669;55.706;37.656;2022-10-19T17:58:01;7.32;;;3.03;;
43813;SDS011;29669;55.706;37.656;2022-10-19T18:00:55;5.97;;;2.97;;
43813;SDS011;29669;55.706;37.656;2022-10-19T18:03:45;10.23;;;3.55;;
43813;SDS011;29669;55.706;37.656;2022-10-19T18:06:34;5.10;;;2.80;;
43813;SDS011;29669;55.706;37.656;2022-10-19T18:09:23;15.43;;;4.82;;
43813;SDS011;29669;55.706;37.656;2022-10-19T18:12:11;5.85;;;3.30;;
43813;SDS011;29669;55.706;37.656;2022-10-19T18:15:00;4.25;;;3.10;;
43813;SDS011;29669;55.706;37.656;2022-10-19T18:17:49;6.75;;;2.88;;
43813;SDS011;29669;55.706;37.656;2022-10-19T18:20:37;8.10;;;3.97;;
43813;SDS011;29669;55.706;37.656;2022-10-19T18:23:26;8.15;;;3.75;;
43813;SDS011;29669;55.706;37.656;2022-10-19T18:26:16;4.43;;;3.00;;
43813;SDS011;29669;55.706;37.656;2022-10-19T18:29:25;5.30;;;3.20;;
43813;SDS011;29669;55.706;37.656;2022-10-19T18:32:13;4.15;;;3.45;;
43813;SDS011;29669;55.706;37.656;2022-10-19T18:35:01;7.00;;;3.53;;
43813;SDS011;29669;55.706;37.656;2022-10-19T18:37:49;4.93;;;3.65;;
43813;SDS011;29669;55.706;37.656;2022-10-19T18:40:37;6.53;;;3.40;;
43813;SDS011;29669;55.706;37.656;2022-10-19T18:43:25;7.78;;;3.88;;
43813;SDS011;29669;55.706;37.656;2022-10-19T18:46:13;5.22;;;3.85;;